Time;durP1;ratioP1;P1;durP2;ratioP2;P2;SDS_P1;SDS_P2;PMS_P1;PMS_P2;Temp;Humidity;BMP_temperature;BMP_pressure;BME280_temperature;BME280_humidity;BME280_pressure;Samples;Min_cycle;Max_cycle;Signal;HPM_P1;HPM_P2
2021/04/12 00:01:47;;;;;;;4.70;1.27;;;2.60;79.40;;;;;;5078589;28;20028;-74
2021/04/12 00:04:42;;;;;;;7.23;1.73;;;2.50;79.60;;;;;;5078763;28;20024;-74
2021/04/12 00:07:36;;;;;;;5.40;2.00;;;2.60;79.80;;;;;;5069872;28;20395;-73
2021/04/12 00:10:24;;;;;;;3.93;1.47;;;2.50;79.80;;;;;;5061167;28;20141;-73
2021/04/12 00:13:12;;;;;;;5.33;1.43;;;2.50;79.80;;;;;;5078853;28;20036;-74
2021/04/12 00:15:47;;;;;;;5.47;1.40;;;2.50;79.90;;;;;;5061365;28;20039;-74
2021/04/12 00:18:47;;;;;;;6.20;1.37;;;2.50;80.60;;;;;;5096754;28;20020;-74
2021/04/12 00:21:39;;;;;;;7.73;1.57;;;2.40;80.10;;;;;;5096847;28;20028;-74
2021/04/12 00:24:11;;;;;;;5.40;1.50;;;2.40;80.30;;;;;;5096584;28;20059;-73
2021/04/12 00:26:50;;;;;;;4.57;1.57;;;2.40;80.30;;;;;;5078700;28;20028;-74
2021/04/12 00:29:30;;;;;;;8.03;1.97;;;2.40;80.40;;;;;;5096847;28;20028;-73
2021/04/12 00:32:04;;;;;;;5.27;1.40;;;2.40;80.60;;;;;;5078638;28;20070;-74
2021/04/12 00:34:40;;;;;;;6.88;1.30;;;2.30;80.80;;;;;;5078423;28;20021;-74
2021/04/12 00:37:15;;;;;;;5.07;1.50;;;2.30;80.90;;;;;;5078012;28;20047;-74
2021/04/12 00:39:54;;;;;;;3.53;1.20;;;2.30;81.10;;;;;;5078086;28;20409;-74
2021/04/12 00:42:29;;;;;;;5.47;1.50;;;2.30;80.90;;;;;;5096375;28;20039;-73
2021/04/12 00:45:14;;;;;;;3.67;1.17;;;2.30;81.00;;;;;;5096202;28;20063;-77
2021/04/12 00:47:48;;;;;;;;;;;2.30;81.00;;;;;;5096780;28;20027;-77
2021/04/12 00:50:33;;;;;;;3.80;0.93;;;2.20;81.10;;;;;;5096476;28;19911;-77
2021/04/12 00:53:11;;;;;;;6.43;1.60;;;2.20;81.00;;;;;;5077984;28;20472;-77
2021/04/12 00:55:58;;;;;;;7.07;1.87;;;2.10;81.10;;;;;;5077756;28;20028;-77
2021/04/12 00:58:52;;;;;;;3.70;1.60;;;2.10;81.30;;;;;;5077951;28;20019;-77
2021/04/12 01:01:41;;;;;;;5.43;1.80;;;2.00;81.50;;;;;;5096323;28;20035;-77
2021/04/12 01:04:32;;;;;;;6.87;2.10;;;2.00;81.60;;;;;;5095807;28;20036;-77
2021/04/12 01:07:34;;;;;;;4.57;1.93;;;2.00;81.70;;;;;;5095463;28;20016;-76
2021/04/12 01:10:19;;;;;;;10.50;2.60;;;2.00;81.80;;;;;;5077596;28;20024;-77
2021/04/12 01:12:53;;;;;;;6.82;2.42;;;2.00;82.00;;;;;;5077570;28;20108;-77
2021/04/12 01:15:37;;;;;;;5.70;2.10;;;1.90;82.10;;;;;;5095917;28;20027;-73
2021/04/12 01:18:34;;;;;;;7.80;2.65;;;2.00;82.20;;;;;;5077447;28;20028;-73
2021/04/12 01:21:21;;;;;;;5.60;2.07;;;1.90;82.30;;;;;;5077352;28;20074;-73
2021/04/12 01:24:02;;;;;;;6.47;3.07;;;1.90;82.30;;;;;;5095400;28;20471;-73
2021/04/12 01:26:52;;;;;;;5.37;2.30;;;1.90;82.60;;;;;;5095678;28;20089;-74
2021/04/12 01:29:35;;;;;;;7.40;3.20;;;1.80;82.60;;;;;;5075762;28;20128;-73
2021/04/12 01:32:40;;;;;;;6.38;2.95;;;1.80;82.80;;;;;;5073688;28;20103;-73
2021/04/12 01:35:39;;;;;;;6.50;4.22;;;1.80;83.00;;;;;;4985797;28;20117;-73
2021/04/12 01:38:36;;;;;;;7.17;3.17;;;1.80;83.00;;;;;;5056908;28;20567;-73
2021/04/12 01:41:11;;;;;;;8.13;2.90;;;1.80;83.20;;;;;;5057055;28;20031;-73
2021/04/12 01:44:06;;;;;;;6.57;2.93;;;1.80;83.30;;;;;;5075139;28;20094;-73
2021/04/12 01:46:42;;;;;;;10.32;2.78;;;1.70;83.40;;;;;;5012594;28;20036;-73
2021/04/12 01:49:30;;;;;;;6.67;3.10;;;1.70;83.40;;;;;;5057113;28;20021;-73
2021/04/12 01:52:38;;;;;;;7.67;2.97;;;1.70;83.60;;;;;;5075118;28;20028;-75
2021/04/12 01:55:09;;;;;;;8.33;3.00;;;1.70;83.70;;;;;;5079947;28;20020;-73
2021/04/12 01:58:01;;;;;;;7.50;2.90;;;1.70;83.70;;;;;;5094944;28;20039;-74
2021/04/12 02:00:35;;;;;;;6.87;3.00;;;1.70;83.90;;;;;;5094792;28;20020;-73
2021/04/12 02:03:26;;;;;;;9.03;3.43;;;1.70;84.00;;;;;;5076692;28;20478;-73
2021/04/12 02:06:01;;;;;;;7.03;3.37;;;1.60;84.30;;;;;;5076489;28;20024;-73
2021/04/12 02:08:46;;;;;;;7.00;3.10;;;1.70;84.50;;;;;;5093132;28;20099;-73
2021/04/12 02:11:26;;;;;;;9.35;3.10;;;1.70;84.80;;;;;;5076421;28;20036;-73
2021/04/12 02:14:12;;;;;;;8.50;3.30;;;1.70;84.80;;;;;;5076171;28;20028;-73
2021/04/12 02:17:12;;;;;;;5.67;2.70;;;1.70;84.70;;;;;;5076575;28;20513;-73
2021/04/12 02:19:58;;;;;;;7.23;3.03;;;1.70;84.70;;;;;;5093616;28;20032;-73
2021/04/12 02:23:05;;;;;;;10.73;2.60;;;1.70;84.80;;;;;;5076303;28;20119;-73
2021/04/12 02:26:10;;;;;;;5.57;2.30;;;1.70;84.70;;;;;;5074644;28;20479;-73
2021/04/12 02:28:49;;;;;;;6.57;2.88;;;1.60;84.80;;;;;;5093523;28;20032;-77
2021/04/12 02:31:50;;;;;;;6.30;2.87;;;1.60;84.80;;;;;;5094394;28;20088;-77
2021/04/12 02:34:40;;;;;;;8.13;3.37;;;1.60;85.00;;;;;;5093764;28;20534;-77
2021/04/12 02:37:25;;;;;;;6.93;3.20;;;1.60;85.10;;;;;;5076256;28;20390;-77
2021/04/12 02:40:25;;;;;;;9.40;2.88;;;1.60;85.30;;;;;;5097247;27;1034957;-77
2021/04/12 02:43:18;;;;;;;7.63;3.30;;;1.60;85.60;;;;;;5111076;28;20031;-78
2021/04/12 02:46:03;;;;;;;8.73;3.43;;;1.50;85.50;;;;;;5110950;28;20113;-77
2021/04/12 02:48:33;;;;;;;;;;;1.50;85.90;;;;;;5092941;28;20035;-77
2021/04/12 02:51:18;;;;;;;6.63;3.13;;;1.50;85.80;;;;;;5092534;28;19904;-77
2021/04/12 02:53:54;;;;;;;6.03;2.40;;;1.50;85.70;;;;;;5111219;28;20020;-77
2021/04/12 02:56:43;;;;;;;9.17;2.87;;;1.50;85.70;;;;;;5105799;28;20540;-77
2021/04/12 02:59:24;;;;;;;5.30;2.43;;;1.50;86.20;;;;;;5071993;28;20024;-77
2021/04/12 03:02:01;;;;;;;7.07;2.83;;;1.50;86.30;;;;;;5072315;28;20048;-78
2021/04/12 03:04:39;;;;;;;6.23;3.00;;;1.50;86.20;;;;;;5090716;28;20460;-77
2021/04/12 03:07:04;;;;;;;9.77;2.87;;;1.50;86.60;;;;;;5090416;28;20025;-77
2021/04/12 03:09:38;;;;;;;6.57;3.20;;;1.50;86.70;;;;;;5090165;28;20071;-77
2021/04/12 03:12:23;;;;;;;8.18;2.90;;;1.40;86.90;;;;;;5090210;28;20494;-77
2021/04/12 03:14:48;;;;;;;;;;;1.40;87.20;;;;;;5090641;28;20063;-78
2021/04/12 03:17:32;;;;;;;7.10;3.23;;;1.50;87.50;;;;;;5090145;28;20372;-78
2021/04/12 03:20:19;;;;;;;9.60;2.80;;;1.50;87.40;;;;;;5089879;28;20032;-78
2021/04/12 03:23:16;;;;;;;5.57;2.77;;;1.50;87.20;;;;;;5071680;28;20024;-78
2021/04/12 03:26:02;;;;;;;6.87;2.33;;;1.60;87.10;;;;;;4986162;28;20040;-78
2021/04/12 03:28:58;;;;;;;5.27;2.83;;;1.60;87.10;;;;;;5089667;28;20021;-78
2021/04/12 03:31:32;;;;;;;6.17;2.93;;;1.60;87.00;;;;;;5071515;28;20012;-77
2021/04/12 03:34:38;;;;;;;7.13;3.07;;;1.60;87.20;;;;;;5071663;28;20070;-77
2021/04/12 03:37:32;;;;;;;9.20;3.37;;;1.60;87.70;;;;;;5088668;28;20020;-78
2021/04/12 03:40:20;;;;;;;9.07;4.05;;;1.70;88.80;;;;;;5067549;28;20093;-77
2021/04/12 03:43:16;;;;;;;10.47;3.73;;;1.70;89.10;;;;;;5069266;28;20060;-77
2021/04/12 03:46:23;;;;;;;8.33;3.33;;;1.70;89.20;;;;;;5069015;28;20027;-77
2021/04/12 03:49:26;;;;;;;7.00;3.13;;;1.70;89.20;;;;;;5069205;28;20465;-77
2021/04/12 03:52:04;;;;;;;8.27;3.53;;;1.80;88.90;;;;;;5055658;28;20048;-77
2021/04/12 03:54:43;;;;;;;6.63;3.20;;;1.90;89.10;;;;;;5055746;28;20476;-77
2021/04/12 03:57:37;;;;;;;9.10;2.73;;;1.90;88.80;;;;;;5054377;28;20633;-78
2021/04/12 04:00:29;;;;;;;7.85;3.22;;;1.90;88.40;;;;;;5056008;28;20025;-77
2021/04/12 04:03:06;;;;;;;7.00;2.90;;;1.90;88.40;;;;;;5034448;28;20022;-77
2021/04/12 04:06:04;;;;;;;5.80;2.83;;;1.90;88.30;;;;;;5034714;28;20025;-77
2021/04/12 04:08:40;;;;;;;6.40;3.03;;;1.90;88.20;;;;;;4964802;28;20514;-77
2021/04/12 04:11:27;;;;;;;6.47;2.83;;;1.90;88.30;;;;;;5035724;28;20428;-78
2021/04/12 04:14:11;;;;;;;7.80;3.37;;;1.90;88.50;;;;;;5034352;28;20117;-77
2021/04/12 04:17:15;;;;;;;7.15;3.88;;;1.90;88.80;;;;;;5033854;28;20037;-77
2021/04/12 04:19:53;;;;;;;6.15;3.05;;;1.80;88.70;;;;;;4994610;28;20048;-77
2021/04/12 04:23:13;;;;;;;9.43;3.97;;;1.90;89.00;;;;;;5033822;28;20036;-77
2021/04/12 04:26:15;;;;;;;10.33;3.43;;;1.90;88.90;;;;;;4939081;29;20031;-77
2021/04/12 04:29:18;;;;;;;7.17;3.03;;;2.00;89.20;;;;;;5033848;28;20373;-77
2021/04/12 04:31:53;;;;;;;9.80;3.03;;;2.00;89.10;;;;;;5033846;28;20029;-77
2021/04/12 04:34:31;;;;;;;5.77;3.07;;;2.00;89.00;;;;;;5034937;28;20385;-78
2021/04/12 04:37:22;;;;;;;6.73;3.60;;;2.00;89.10;;;;;;5035131;28;20022;-77
2021/04/12 04:40:23;;;;;;;9.87;3.40;;;2.00;89.30;;;;;;5047590;28;20415;-77
2021/04/12 04:43:13;;;;;;;17.07;3.83;;;2.00;89.70;;;;;;5060026;28;20100;-77
2021/04/12 04:46:03;;;;;;;8.37;3.80;;;1.90;89.60;;;;;;5056703;28;20021;-77
2021/04/12 04:48:49;;;;;;;6.47;3.17;;;1.90;89.50;;;;;;5056707;28;20458;-77
2021/04/12 04:51:37;;;;;;;6.27;3.40;;;1.80;89.40;;;;;;5074831;28;20033;-77
2021/04/12 04:54:43;;;;;;;7.87;2.53;;;1.80;89.20;;;;;;5074707;28;20313;-77
2021/04/12 04:57:13;;;;;;;6.53;2.37;;;1.80;89.20;;;;;;4976863;28;20030;-77
2021/04/12 05:00:01;;;;;;;5.77;2.97;;;1.70;89.10;;;;;;5042523;28;20033;-77
2021/04/12 05:02:42;;;;;;;6.70;2.90;;;1.70;89.00;;;;;;5073604;28;20029;-77
2021/04/12 05:05:37;;;;;;;7.40;3.13;;;1.70;89.00;;;;;;5075019;28;20028;-77
2021/04/12 05:08:27;;;;;;;7.30;2.63;;;1.70;89.00;;;;;;5074334;28;20021;-77
2021/04/12 05:11:32;;;;;;;5.23;2.47;;;1.70;89.20;;;;;;5074378;28;20024;-77
2021/04/12 05:14:12;;;;;;;4.63;1.85;;;1.80;89.60;;;;;;4992897;28;20030;-77
2021/04/12 05:16:49;;;;;;;5.73;2.67;;;1.90;90.10;;;;;;4992962;28;20026;-77
2021/04/12 05:19:31;;;;;;;6.53;2.80;;;1.90;90.00;;;;;;5045251;28;20045;-77
2021/04/12 05:22:06;;;;;;;10.53;2.90;;;2.00;89.90;;;;;;5074087;28;20028;-77
2021/04/12 05:24:59;;;;;;;6.87;2.57;;;2.10;89.80;;;;;;5055895;28;20507;-78
2021/04/12 05:27:49;;;;;;;5.83;2.70;;;2.10;90.00;;;;;;5073982;28;20024;-78
2021/04/12 05:30:52;;;;;;;4.93;2.33;;;2.20;90.00;;;;;;5073784;28;20020;-77
2021/04/12 05:33:38;;;;;;;6.07;2.33;;;2.20;90.00;;;;;;5055521;28;20053;-77
2021/04/12 05:36:24;;;;;;;7.30;2.37;;;2.20;90.00;;;;;;5066742;28;20020;-78
2021/04/12 05:38:58;;;;;;;5.03;2.27;;;2.20;89.80;;;;;;5072485;28;20195;-79
2021/04/12 05:41:39;;;;;;;4.30;1.80;;;2.10;89.50;;;;;;5077356;28;20029;-79
2021/04/12 05:44:10;;;;;;;6.00;2.17;;;2.10;89.50;;;;;;5057146;28;20035;-78
2021/04/12 05:46:57;;;;;;;5.07;1.83;;;2.10;89.60;;;;;;5081466;28;20099;-79
2021/04/12 05:50:00;;;;;;;4.57;1.90;;;2.10;89.80;;;;;;5073437;28;20032;-79
2021/04/12 05:52:37;;;;;;;3.97;1.77;;;2.10;89.80;;;;;;5056862;28;20029;-78
2021/04/12 05:55:15;;;;;;;7.80;2.03;;;2.20;89.90;;;;;;5055897;28;20036;-77
2021/04/12 05:58:01;;;;;;;5.87;2.10;;;2.20;90.20;;;;;;5073376;28;20043;-79
2021/04/12 06:00:46;;;;;;;4.30;2.17;;;2.20;90.00;;;;;;5073380;28;20020;-77
2021/04/12 06:03:40;;;;;;;6.67;2.07;;;2.20;90.00;;;;;;5055212;28;20033;-77
2021/04/12 06:06:17;;;;;;;7.40;2.27;;;2.30;90.00;;;;;;5073089;28;20032;-76
2021/04/12 06:09:25;;;;;;;4.87;2.10;;;2.30;90.10;;;;;;5083644;28;20066;-77
2021/04/12 06:12:11;;;;;;;4.90;1.97;;;2.30;90.00;;;;;;5093436;28;20024;-77
2021/04/12 06:14:52;;;;;;;3.83;1.77;;;2.40;90.00;;;;;;5074909;28;20031;-77
2021/04/12 06:17:23;;;;;;;4.97;1.53;;;2.40;90.00;;;;;;5075173;28;20093;-77
2021/04/12 06:20:17;;;;;;;3.00;1.27;;;2.50;90.10;;;;;;5074937;28;20479;-77
2021/04/12 06:23:15;;;;;;;5.03;1.90;;;2.50;90.20;;;;;;5092992;28;20020;-78
2021/04/12 06:26:24;;;;;;;7.47;1.60;;;2.50;90.30;;;;;;5093338;28;20035;-77
2021/04/12 06:29:24;;;;;;;5.37;1.93;;;2.60;90.40;;;;;;5067019;28;20043;-77
2021/04/12 06:32:24;;;;;;;4.67;2.00;;;2.60;90.40;;;;;;5093336;28;20089;-78
2021/04/12 06:34:52;;;;;;;3.53;1.50;;;2.60;90.20;;;;;;5093624;28;20032;-77
2021/04/12 06:37:42;;;;;;;5.70;1.93;;;2.60;90.20;;;;;;5093653;28;20024;-77
2021/04/12 06:40:32;;;;;;;7.13;2.00;;;2.60;90.20;;;;;;5075210;28;20522;-78
2021/04/12 06:43:21;;;;;;;3.37;1.73;;;2.70;90.40;;;;;;5093223;28;20020;-77
2021/04/12 06:46:25;;;;;;;8.47;2.10;;;2.70;90.40;;;;;;5075061;28;20501;-78
2021/04/12 06:48:56;;;;;;;3.97;1.63;;;2.70;90.50;;;;;;5093042;28;20024;-77
2021/04/12 06:51:45;;;;;;;4.53;1.40;;;2.70;90.50;;;;;;5075011;28;20043;-77
2021/04/12 06:54:13;;;;;;;3.30;1.40;;;2.70;90.60;;;;;;5093035;28;20059;-77
2021/04/12 06:57:11;;;;;;;2.60;1.33;;;2.80;90.70;;;;;;5074859;28;20032;-77
2021/04/12 06:59:42;;;;;;;3.17;1.20;;;2.90;90.70;;;;;;5041403;28;20051;-77
2021/04/12 07:02:08;;;;;;;7.97;2.07;;;2.90;90.90;;;;;;5093032;28;20103;-77
2021/04/12 07:04:33;;;;;;;4.00;1.77;;;2.90;90.90;;;;;;5092296;28;20048;-77
2021/04/12 07:07:24;;;;;;;5.03;1.33;;;3.00;90.90;;;;;;5072418;28;20024;-78
2021/04/12 07:10:20;;;;;;;6.27;1.87;;;3.10;90.90;;;;;;5072825;28;20101;-78
2021/04/12 07:12:49;;;;;;;6.20;1.80;;;3.10;90.90;;;;;;5054088;28;20563;-78
2021/04/12 07:15:33;;;;;;;6.33;1.63;;;3.20;91.00;;;;;;5054463;28;20025;-77
2021/04/12 07:18:29;;;;;;;3.72;1.40;;;3.30;91.00;;;;;;5072423;28;20070;-78
2021/04/12 07:21:19;;;;;;;3.00;1.20;;;3.40;91.10;;;;;;5072693;28;20029;-78
2021/04/12 07:24:21;;;;;;;5.80;1.60;;;3.50;91.00;;;;;;5072422;28;20032;-77
2021/04/12 07:27:24;;;;;;;3.30;1.03;;;3.50;90.90;;;;;;5076149;28;20028;-78
2021/04/12 07:30:08;;;;;;;3.90;1.37;;;3.60;90.80;;;;;;5058035;28;20075;-79
2021/04/12 07:32:58;;;;;;;6.40;1.40;;;3.70;90.70;;;;;;5076399;28;20333;-78
2021/04/12 07:35:50;;;;;;;4.07;1.07;;;3.80;90.60;;;;;;5063710;28;20028;-78
2021/04/12 07:38:53;;;;;;;7.80;1.50;;;3.90;90.70;;;;;;5058221;28;20032;-78
2021/04/12 07:42:10;;;;;;;4.30;1.37;;;4.00;90.40;;;;;;5058484;28;20445;-78
2021/04/12 07:44:57;;;;;;;3.63;1.30;;;4.10;90.20;;;;;;5020788;28;20099;-73
2021/04/12 07:47:56;;;;;;;6.73;2.30;;;4.20;90.10;;;;;;5076085;28;20028;-72
2021/04/12 07:50:31;;;;;;;4.67;1.20;;;4.30;90.10;;;;;;5057591;28;20032;-73
2021/04/12 07:53:17;;;;;;;6.93;1.33;;;4.50;90.00;;;;;;5057735;28;20035;-73
2021/04/12 07:56:04;;;;;;;4.57;1.00;;;4.60;89.20;;;;;;5075892;28;20074;-73
2021/04/12 07:59:07;;;;;;;4.10;1.27;;;4.70;88.50;;;;;;5057774;28;20139;-73
2021/04/12 08:02:14;;;;;;;8.17;1.30;;;4.90;87.30;;;;;;5075915;28;20027;-73
2021/04/12 08:04:58;;;;;;;4.23;1.40;;;4.90;86.20;;;;;;5057478;28;20025;-73
2021/04/12 08:07:55;;;;;;;3.40;1.10;;;4.90;85.70;;;;;;5057837;28;20086;-72
2021/04/12 08:10:58;;;;;;;4.03;1.10;;;5.00;85.00;;;;;;5075355;28;20404;-72
2021/04/12 08:13:42;;;;;;;7.23;1.40;;;4.90;84.90;;;;;;5075456;28;20025;-74
2021/04/12 08:16:45;;;;;;;7.82;1.13;;;5.00;85.50;;;;;;5075627;28;20028;-74
2021/04/12 08:19:13;;;;;;;4.37;0.90;;;5.10;85.40;;;;;;5075368;28;20070;-74
2021/04/12 08:21:51;;;;;;;2.43;0.90;;;5.20;84.70;;;;;;5057721;28;20025;-73
2021/04/12 08:24:43;;;;;;;3.83;1.00;;;5.20;84.50;;;;;;5053811;28;20016;-73
2021/04/12 08:27:54;;;;;;;4.33;0.90;;;5.20;83.90;;;;;;5042829;28;20016;-74
2021/04/12 08:30:50;;;;;;;3.57;0.70;;;5.30;84.00;;;;;;5074876;28;20025;-73
2021/04/12 08:33:43;;;;;;;6.60;0.93;;;5.30;84.00;;;;;;5075089;28;20086;-73
2021/04/12 08:36:27;;;;;;;2.03;0.60;;;5.40;83.30;;;;;;5057111;28;20030;-73
2021/04/12 08:39:18;;;;;;;3.78;0.73;;;5.50;83.00;;;;;;5056693;28;20045;-74
2021/04/12 08:42:20;;;;;;;1.83;0.50;;;5.70;81.90;;;;;;5074776;28;20360;-72
2021/04/12 08:44:49;;;;;;;3.93;1.00;;;6.00;79.80;;;;;;5056711;28;20517;-73
2021/04/12 08:47:51;;;;;;;3.17;0.70;;;6.10;73.90;;;;;;5074828;28;20033;-74
2021/04/12 08:50:46;;;;;;;2.77;0.47;;;6.20;73.30;;;;;;5075252;28;20115;-73
2021/04/12 08:53:54;;;;;;;2.60;0.70;;;6.30;74.10;;;;;;5077140;28;20032;-73
2021/04/12 08:56:36;;;;;;;1.60;0.57;;;6.40;73.20;;;;;;5095062;28;20043;-73
2021/04/12 08:59:26;;;;;;;4.13;0.80;;;6.50;73.60;;;;;;5094982;28;20073;-74
2021/04/12 09:02:29;;;;;;;2.10;0.60;;;6.60;74.00;;;;;;5036265;28;20035;-74
2021/04/12 09:05:30;;;;;;;2.67;0.60;;;6.70;73.90;;;;;;5064200;28;20032;-73
2021/04/12 09:08:05;;;;;;;2.80;0.77;;;6.80;74.50;;;;;;5067484;28;20187;-74
2021/04/12 09:10:52;;;;;;;1.43;0.60;;;6.80;73.60;;;;;;5064040;28;20493;-73
2021/04/12 09:13:39;;;;;;;2.67;0.60;;;6.90;74.30;;;;;;5094367;28;20028;-73
2021/04/12 09:16:19;;;;;;;2.77;0.90;;;6.90;73.90;;;;;;5069752;28;20417;-73
2021/04/12 09:19:23;;;;;;;5.60;0.80;;;6.90;73.70;;;;;;5056048;28;20032;-73
2021/04/12 09:22:07;;;;;;;7.47;1.10;;;7.00;73.50;;;;;;5067264;28;20189;-75
2021/04/12 09:25:00;;;;;;;3.08;0.93;;;7.10;71.70;;;;;;5094734;28;20467;-74
2021/04/12 09:28:09;;;;;;;2.17;0.70;;;7.10;71.40;;;;;;5085803;28;20021;-74
2021/04/12 09:31:14;;;;;;;5.10;1.00;;;7.10;71.60;;;;;;5048005;28;20037;-73
2021/04/12 09:34:11;;;;;;;2.40;0.90;;;7.20;71.60;;;;;;5074061;28;20096;-73
2021/04/12 09:36:46;;;;;;;6.57;1.60;;;7.20;71.80;;;;;;5055884;28;20016;-73
2021/04/12 09:40:08;;;;;;;3.93;1.23;;;7.30;71.50;;;;;;5055618;28;20076;-74
2021/04/12 09:42:46;;;;;;;4.80;1.23;;;7.40;71.70;;;;;;4972797;28;20037;-74
2021/04/12 09:45:11;;;;;;;6.30;1.40;;;7.50;70.40;;;;;;5060993;28;20028;-74
2021/04/12 09:47:48;;;;;;;3.43;1.20;;;7.50;70.30;;;;;;5073271;28;20023;-73
2021/04/12 09:50:48;;;;;;;4.17;1.67;;;7.50;70.70;;;;;;5055599;28;20063;-75
2021/04/12 09:53:53;;;;;;;5.13;1.40;;;7.50;70.80;;;;;;5073729;28;20032;-73
2021/04/12 09:56:57;;;;;;;4.70;1.67;;;7.60;70.70;;;;;;5055364;28;20158;-72
2021/04/12 09:59:31;;;;;;;5.30;2.10;;;7.70;70.60;;;;;;5055183;28;20033;-78
2021/04/12 10:02:22;;;;;;;2.83;1.90;;;7.80;70.60;;;;;;5055286;28;20356;-74
2021/04/12 10:04:53;;;;;;;4.90;2.47;;;7.80;70.30;;;;;;5055312;28;20033;-74
2021/04/12 10:07:34;;;;;;;3.10;1.80;;;7.80;70.30;;;;;;5055182;28;20419;-73
2021/04/12 10:10:22;;;;;;;3.80;2.10;;;7.80;70.10;;;;;;5072962;28;20101;-75
2021/04/12 10:12:54;;;;;;;4.57;1.97;;;7.70;69.70;;;;;;5054883;28;20045;-74
2021/04/12 10:15:35;;;;;;;4.20;1.53;;;7.70;69.70;;;;;;5073010;28;20367;-76
2021/04/12 10:18:29;;;;;;;3.20;1.33;;;7.70;69.10;;;;;;5073262;28;20028;-74
2021/04/12 10:21:16;;;;;;;4.60;1.40;;;7.90;69.40;;;;;;5030530;28;20395;-73
2021/04/12 10:23:46;;;;;;;2.10;0.90;;;8.20;68.60;;;;;;5055038;28;20021;-73
2021/04/12 10:26:19;;;;;;;4.33;1.13;;;8.30;67.70;;;;;;5073126;28;20021;-74
2021/04/12 10:28:51;;;;;;;1.30;0.50;;;8.30;67.90;;;;;;5072983;28;20105;-74
2021/04/12 10:31:26;;;;;;;1.40;0.50;;;8.10;67.80;;;;;;5055181;28;20043;-74
2021/04/12 10:34:09;;;;;;;3.00;0.50;;;7.90;69.20;;;;;;5054896;28;20478;-74
2021/04/12 10:36:48;;;;;;;0.57;0.40;;;8.20;68.70;;;;;;5073006;28;20024;-75
2021/04/12 10:39:38;;;;;;;1.70;0.30;;;8.70;69.10;;;;;;5077685;28;20048;-73
2021/04/12 10:42:14;;;;;;;1.27;0.37;;;9.20;67.80;;;;;;5077996;28;20020;-72
2021/04/12 10:44:56;;;;;;;1.47;0.40;;;9.30;66.00;;;;;;5078832;28;20062;-73
2021/04/12 10:47:45;;;;;;;0.67;0.30;;;9.60;66.70;;;;;;5055173;28;20107;-74
2021/04/12 10:50:19;;;;;;;0.85;0.40;;;10.10;66.00;;;;;;5072945;28;20028;-73
2021/04/12 10:53:03;;;;;;;;;;;10.60;65.10;;;;;;5055065;28;20436;-73
2021/04/12 10:55:42;;;;;;;1.45;0.40;;;11.10;63.70;;;;;;5054563;28;19912;-73
2021/04/12 10:58:11;;;;;;;1.15;0.30;;;11.70;62.10;;;;;;5054407;28;20032;-74
2021/04/12 11:00:37;;;;;;;1.13;0.30;;;12.10;60.70;;;;;;5074413;28;20024;-73
2021/04/12 11:03:23;;;;;;;0.40;0.20;;;12.70;60.40;;;;;;5076738;28;20028;-74
2021/04/12 11:06:08;;;;;;;0.47;0.20;;;13.20;57.20;;;;;;5076794;28;20025;-74
2021/04/12 11:08:54;;;;;;;0.85;0.40;;;13.60;56.80;;;;;;5076360;28;20032;-74
2021/04/12 11:11:30;;;;;;;0.68;0.30;;;13.90;54.60;;;;;;5076350;28;20495;-74
2021/04/12 11:14:04;;;;;;;0.50;0.20;;;14.10;55.40;;;;;;5076392;28;20020;-74
2021/04/12 11:16:42;;;;;;;0.80;0.30;;;14.50;53.40;;;;;;5058882;28;20025;-73
2021/04/12 11:19:31;;;;;;;0.75;0.32;;;14.70;51.10;;;;;;5077703;28;20021;-77
2021/04/12 11:22:32;;;;;;;1.00;0.30;;;15.00;50.60;;;;;;5082727;28;20029;-77
2021/04/12 11:25:07;;;;;;;0.80;0.30;;;15.40;48.40;;;;;;5065617;28;20113;-77
2021/04/12 11:28:04;;;;;;;0.98;0.30;;;15.70;48.70;;;;;;5053380;28;20363;-77
2021/04/12 11:30:35;;;;;;;1.40;0.30;;;16.00;47.60;;;;;;5057524;28;20479;-79
2021/04/12 11:33:17;;;;;;;0.40;0.22;;;16.20;46.90;;;;;;5074705;28;20115;-77
2021/04/12 11:36:14;;;;;;;0.82;0.30;;;16.30;47.80;;;;;;5057878;28;20044;-78
2021/04/12 11:39:07;;;;;;;0.93;0.30;;;16.20;47.30;;;;;;5055862;28;20045;-78
2021/04/12 11:41:45;;;;;;;0.52;0.20;;;16.20;47.60;;;;;;5033141;28;20033;-77
2021/04/12 11:44:21;;;;;;;2.15;0.30;;;16.10;47.20;;;;;;5035464;28;20051;-78
2021/04/12 11:47:12;;;;;;;0.82;0.22;;;16.00;47.60;;;;;;5035901;28;20022;-74
2021/04/12 11:49:44;;;;;;;0.60;0.25;;;16.10;47.60;;;;;;5032822;28;20157;-72
2021/04/12 11:52:17;;;;;;;2.03;0.47;;;16.10;47.60;;;;;;5034266;28;20025;-72
2021/04/12 11:55:15;;;;;;;2.25;0.40;;;16.10;46.60;;;;;;5034824;28;20465;-72
2021/04/12 11:57:44;;;;;;;1.83;0.50;;;16.20;46.50;;;;;;5035962;28;20052;-74
2021/04/12 12:00:20;;;;;;;1.17;0.25;;;16.30;46.10;;;;;;5036172;28;20029;-73
2021/04/12 12:03:13;;;;;;;3.80;0.30;;;16.40;45.20;;;;;;5034689;28;20022;-73
2021/04/12 12:06:03;;;;;;;2.33;0.30;;;16.20;45.00;;;;;;5034455;28;20484;-72
2021/04/12 12:08:35;;;;;;;0.90;0.40;;;16.20;44.90;;;;;;5033794;28;20025;-73
2021/04/12 12:11:17;;;;;;;1.10;0.25;;;16.30;44.90;;;;;;5035437;28;20040;-75
2021/04/12 12:14:04;;;;;;;2.85;0.32;;;16.40;44.40;;;;;;5035723;28;20430;-72
2021/04/12 12:16:37;;;;;;;1.27;0.40;;;16.50;43.70;;;;;;5035679;28;20022;-75
2021/04/12 12:19:40;;;;;;;1.77;0.32;;;16.70;44.00;;;;;;5035324;28;20037;-74
2021/04/12 12:22:20;;;;;;;0.88;0.30;;;16.70;43.00;;;;;;5031953;28;20032;-77
2021/04/12 12:25:07;;;;;;;1.63;0.30;;;16.70;43.40;;;;;;5015751;28;20033;-78
2021/04/12 12:27:40;;;;;;;0.80;0.40;;;16.80;43.00;;;;;;5028764;28;20477;-76
2021/04/12 12:30:16;;;;;;;3.90;0.40;;;17.00;43.10;;;;;;5033834;28;20424;-78
2021/04/12 12:33:07;;;;;;;1.70;0.40;;;17.10;42.60;;;;;;5035193;28;20632;-77
2021/04/12 12:35:53;;;;;;;1.10;0.40;;;17.10;42.30;;;;;;5035089;28;20068;-77
2021/04/12 12:38:27;;;;;;;1.95;0.60;;;16.80;42.40;;;;;;5033764;28;20385;-79
2021/04/12 12:41:00;;;;;;;0.70;0.25;;;16.50;42.30;;;;;;5069489;28;20079;-82
2021/04/12 12:43:36;;;;;;;2.22;0.40;;;16.10;42.40;;;;;;5057056;28;20468;-77
2021/04/12 12:46:26;;;;;;;1.05;0.28;;;15.60;42.70;;;;;;5074639;28;20103;-79
2021/04/12 12:49:16;;;;;;;1.83;0.30;;;15.00;43.40;;;;;;5074681;28;20025;-79
2021/04/12 12:51:50;;;;;;;0.85;0.28;;;14.50;44.30;;;;;;5056272;28;20430;-79
2021/04/12 12:54:59;;;;;;;1.70;0.20;;;14.00;44.90;;;;;;5074565;28;20111;-81
2021/04/12 12:57:33;;;;;;;1.83;0.40;;;13.60;45.30;;;;;;5048042;28;20040;-80
2021/04/12 13:00:22;;;;;;;1.67;0.30;;;13.10;46.00;;;;;;5056354;28;20440;-80
2021/04/12 13:02:48;;;;;;;2.80;0.98;;;12.70;47.00;;;;;;5065204;28;20040;-78
2021/04/12 13:05:28;;;;;;;1.35;0.30;;;12.30;47.30;;;;;;5055658;28;20031;-77
2021/04/12 13:08:08;;;;;;;2.40;0.43;;;12.20;47.80;;;;;;5056097;28;20538;-77
2021/04/12 13:10:44;;;;;;;1.43;0.50;;;12.10;48.50;;;;;;5073649;28;20027;-77
2021/04/12 13:13:29;;;;;;;1.00;0.40;;;11.90;48.80;;;;;;5070905;28;20111;-78
2021/04/12 13:16:21;;;;;;;2.63;0.40;;;11.80;49.10;;;;;;5073993;28;20021;-78
2021/04/12 13:18:56;;;;;;;1.37;0.40;;;11.70;49.10;;;;;;5043842;28;20113;-80
2021/04/12 13:21:37;;;;;;;0.80;0.30;;;11.40;49.60;;;;;;5052737;28;20647;-79
2021/04/12 13:24:15;;;;;;;1.53;0.30;;;11.20;50.20;;;;;;5066077;28;20017;-79
2021/04/12 13:27:01;;;;;;;1.97;0.40;;;11.10;50.70;;;;;;5074011;28;20021;-75
2021/04/12 13:29:31;;;;;;;0.90;0.40;;;11.10;51.00;;;;;;5073725;28;20450;-77
2021/04/12 13:32:10;;;;;;;2.93;0.40;;;11.00;51.20;;;;;;5056189;28;20441;-78
2021/04/12 13:34:54;;;;;;;0.90;0.37;;;10.80;51.30;;;;;;5073968;28;20028;-78
2021/04/12 13:37:25;;;;;;;1.77;0.40;;;10.70;51.80;;;;;;5056097;28;20470;-77
2021/04/12 13:40:09;;;;;;;2.47;0.40;;;10.70;52.10;;;;;;5073428;28;20048;-77
2021/04/12 13:42:38;;;;;;;0.97;0.40;;;10.60;52.40;;;;;;5051275;28;20020;-78
2021/04/12 13:45:09;;;;;;;0.60;0.27;;;10.50;52.30;;;;;;5073526;28;20012;-78
2021/04/12 13:47:41;;;;;;;2.90;0.50;;;10.50;52.40;;;;;;5055774;28;20021;-77
2021/04/12 13:50:22;;;;;;;4.80;0.77;;;10.30;52.70;;;;;;5074115;28;20056;-76
2021/04/12 13:52:56;;;;;;;1.63;0.60;;;10.20;53.00;;;;;;5056024;28;20436;-76
2021/04/12 13:55:47;;;;;;;3.28;0.60;;;10.00;53.50;;;;;;5073509;28;20081;-77
2021/04/12 13:58:22;;;;;;;2.17;0.47;;;9.90;53.90;;;;;;5055643;28;20029;-76
2021/04/12 14:00:54;;;;;;;3.27;0.70;;;10.00;54.10;;;;;;5073357;28;20490;-77
2021/04/12 14:04:00;;;;;;;2.17;0.40;;;10.30;54.50;;;;;;5073682;28;20037;-76
2021/04/12 14:06:36;;;;;;;1.77;0.40;;;11.00;54.40;;;;;;5038669;28;20106;-76
2021/04/12 14:09:30;;;;;;;1.80;0.40;;;11.80;54.10;;;;;;5073236;28;20036;-77
2021/04/12 14:12:06;;;;;;;2.65;0.40;;;12.50;53.10;;;;;;5055392;28;20068;-77
2021/04/12 14:14:45;;;;;;;1.55;0.30;;;13.20;51.90;;;;;;5073483;28;20038;-77
2021/04/12 14:17:19;;;;;;;3.80;0.50;;;13.80;51.10;;;;;;5073464;28;20032;-77
2021/04/12 14:19:47;;;;;;;2.72;0.40;;;14.30;50.90;;;;;;5073295;28;20099;-76
2021/04/12 14:22:32;;;;;;;2.25;0.40;;;14.90;50.20;;;;;;5073172;28;20027;-77
2021/04/12 14:25:13;;;;;;;3.13;0.40;;;15.50;48.70;;;;;;5073241;28;20021;-77
2021/04/12 14:27:41;;;;;;;4.55;0.50;;;16.10;47.40;;;;;;5073186;28;20020;-77
2021/04/12 14:30:22;;;;;;;2.33;0.52;;;16.50;46.60;;;;;;5073341;28;20107;-77
2021/04/12 14:32:48;;;;;;;3.15;0.40;;;16.90;45.00;;;;;;5072954;28;20124;-77